EST,Max TemperatureF,Mean TemperatureF,Min TemperatureF,Max Dew PointF,MeanDew PointF,Min DewpointF,Max Humidity, Mean Humidity, Min Humidity, Max Sea Level PressureIn, Mean Sea Level PressureIn, Min Sea Level PressureIn, Max VisibilityMiles, Mean VisibilityMiles, Min VisibilityMiles, Max Wind SpeedMPH, Mean Wind SpeedMPH, Max Gust SpeedMPH,PrecipitationIn, CloudCover, Events, WindDirDegrees
2012-12-1,,,,,,,,,,,,,,,,,,,,,,
2012-12-2,,,,,,,,,,,,,,,,,,,,,,
2012-12-3,,,,,,,,,,,,,,,,,,,,,,
2012-12-4,,,,,,,,,,,,,,,,,,,,,,
2012-12-5,53,45,36,45,40,31,100,82,54,30.32,30.26,30.21,10,9,0,15,4,20,0.00,4,Fog-Rain,39
2012-12-6,54,43,32,47,38,30,96,80,52,30.24,30.13,30.04,10,10,10,8,4,,0.00,5,Rain,139
2012-12-7,64,57,50,51,48,46,90,74,59,30.04,29.97,29.91,10,10,10,9,6,,0.00,6,Rain,193
2012-12-8,64,59,54,56,53,49,100,84,64,30.01,29.94,29.89,10,8,2,13,5,21,0.00,8,Rain,236
2012-12-9,59,56,53,58,56,53,100,95,84,30.03,29.96,29.81,10,8,1,9,5,,0.00,7,Rain,166
2012-12-10,61,48,36,56,49,36,99,91,70,29.90,29.74,29.62,10,8,2,13,8,18,0.00,7,Rain,244
2012-12-11,36,32,29,36,28,24,97,82,67,30.23,30.09,29.90,10,9,4,8,3,,0.00,7,,305
2012-12-12,40,32,23,30,26,24,99,81,57,30.39,30.32,30.24,10,10,5,8,2,,0.00,0,,45
2012-12-13,46,35,24,32,29,24,98,81,55,30.40,30.34,30.29,10,10,10,6,1,,0.00,0,,129
2012-12-14,54,43,32,34,29,22,95,65,31,30.35,30.28,30.19,10,10,10,7,3,,0.00,0,,193
2012-12-15,61,49,37,41,32,27,77,53,33,30.18,30.05,29.90,10,10,10,12,3,,0.00,4,Rain,171
2012-12-16,60,57,54,52,49,36,83,73,46,29.92,29.83,29.73,10,10,10,14,8,21,0.00,6,,198
2012-12-17,58,52,46,52,48,44,99,87,65,29.80,29.70,29.57,10,10,2,13,4,24,0.00,6,Rain,198
2012-12-18,47,43,39,44,38,31,90,83,62,29.90,29.80,29.63,10,10,7,14,7,25,0.00,6,Rain,248
2012-12-19,55,49,43,39,35,30,77,62,47,30.07,30.00,29.85,10,10,10,12,6,18,0.00,0,,259
2012-12-20,56,46,36,46,40,27,89,72,49,30.02,29.69,29.45,10,10,7,23,10,43,0.00,5,Rain,179
2012-12-21,35,32,28,30,25,21,90,80,70,30.03,29.79,29.63,10,6,1,21,12,33,0.00,8,Snow,275
2012-12-22,36,32,28,23,22,20,76,68,55,30.24,30.15,30.04,10,10,10,13,8,21,0.00,4,,256
2012-12-23,50,40,30,38,25,18,80,54,41,30.11,30.01,29.95,10,10,10,10,5,,0.00,2,,217
2012-12-24,48,45,42,47,43,35,99,91,68,29.95,29.86,29.78,10,9,2,7,4,,0.00,8,Rain,202
2012-12-25,46,40,34,45,35,32,95,91,86,30.12,30.04,29.95,10,7,2,10,5,,0.00,8,,16
2012-12-26,46,38,31,44,37,29,100,90,76,29.95,29.62,29.43,10,8,2,26,10,38,0.00,7,Rain-Snow,93
2012-12-27,31,30,29,29,26,24,92,84,79,30.15,30.05,29.84,10,10,5,15,7,25,0.00,8,,291
2012-12-28,39,33,27,33,28,24,99,81,65,30.13,30.02,29.80,10,10,4,6,2,,0.00,5,,100
2012-12-29,37,33,28,36,31,22,100,91,76,30.16,29.85,29.68,10,7,2,15,7,25,0.00,8,Snow,274
2012-12-30,33,29,25,22,21,19,80,72,62,30.44,30.36,30.17,10,10,10,16,8,25,0.00,4,Snow,252
2012-12-31,39,32,25,29,23,22,86,69,52,30.37,30.22,30.10,10,10,10,7,3,,0.00,4,,210